createdAt,value
2023-01-20T00:02:11.202Z,100519.75
2023-01-20T00:04:38.846Z,100521.56
2023-01-20T00:07:06.472Z,100512.03
2023-01-20T00:09:35.422Z,100519.75
2023-01-20T00:12:03.028Z,100521.56
2023-01-20T00:14:30.642Z,100518.78
2023-01-20T00:16:59.973Z,100517.78
2023-01-20T00:19:28.215Z,100528.19
2023-01-20T00:21:55.967Z,100529.03
2023-01-20T00:24:23.591Z,100528.03
2023-01-20T00:26:52.588Z,100535.63
2023-01-20T00:29:20.391Z,100541.59
2023-01-20T00:31:48.056Z,100538.78
2023-01-20T00:34:15.731Z,100541.41
2023-01-20T00:36:43.381Z,100548.19
2023-01-20T00:39:11.007Z,100553.97
2023-01-20T00:41:38.656Z,100556.63
2023-01-20T00:44:07.807Z,100565.50
2023-01-20T00:46:35.423Z,100564.13
2023-01-20T00:49:03.091Z,100572.69
2023-01-20T00:51:30.806Z,100574.34
2023-01-20T00:53:58.426Z,100579.63
2023-01-20T00:56:26.384Z,100586.66
2023-01-20T00:58:55.154Z,100593.06
2023-01-20T01:01:24.920Z,100593.63
2023-01-20T01:03:54.124Z,100597.66
2023-01-20T01:06:23.332Z,100600.13
2023-01-20T01:08:51.020Z,100604.81
2023-01-20T01:11:18.615Z,100616.84
2023-01-20T01:13:46.199Z,100620.47
2023-01-20T01:16:15.117Z,100628.50
2023-01-20T01:18:44.734Z,100625.19
2023-01-20T01:21:15.699Z,100626.03
2023-01-20T01:23:43.810Z,100630.59
2023-01-20T01:26:11.695Z,100638.91
2023-01-20T01:28:39.756Z,100648.75
2023-01-20T01:31:09.094Z,100643.78
2023-01-20T01:33:37.101Z,100653.31
2023-01-20T01:36:08.409Z,100658.72
2023-01-20T01:38:36.069Z,100667.44
2023-01-20T01:41:03.817Z,100669.38
2023-01-20T01:43:33.291Z,100666.91
2023-01-20T01:46:01.707Z,100672.00
2023-01-20T01:48:34.032Z,100681.16
2023-01-20T01:51:05.864Z,100683.25
2023-01-20T01:53:40.878Z,100692.53
2023-01-20T01:56:09.827Z,100698.34
2023-01-20T01:58:41.834Z,100697.78
2023-01-20T02:01:09.466Z,100703.31
2023-01-20T02:03:48.626Z,100700.41
2023-01-20T02:06:17.107Z,100708.31
2023-01-20T02:08:46.796Z,100710.25
2023-01-20T02:11:14.459Z,100722.56
2023-01-20T02:13:42.079Z,100723.66
2023-01-20T02:16:19.012Z,100723.94
2023-01-20T02:18:59.438Z,100725.88
2023-01-20T02:22:09.711Z,100730.59
2023-01-20T02:25:22.618Z,100733.22
2023-01-20T02:28:24.188Z,100746.34
2023-01-20T02:31:27.240Z,100747.47
2023-01-20T02:34:01.829Z,100747.47
2023-01-20T02:36:35.067Z,100753.66
2023-01-20T02:39:07.154Z,100756.69
2023-01-20T02:41:43.161Z,100751.44
2023-01-20T02:44:18.993Z,100760.03
2023-01-20T02:46:53.483Z,100768.03
2023-01-20T02:49:28.379Z,100767.91
2023-01-20T02:52:02.777Z,100760.88
2023-01-20T02:54:34.820Z,100765.13
2023-01-20T02:57:04.927Z,100775.38
2023-01-20T02:59:37.619Z,100779.25
2023-01-20T03:02:09.959Z,100786.84
2023-01-20T03:04:43.320Z,100782.16
2023-01-20T03:07:14.819Z,100796.13
2023-01-20T03:09:48.099Z,100795.69
2023-01-20T03:12:22.316Z,100799.88
2023-01-20T03:14:51.873Z,100799.03
2023-01-20T03:17:19.711Z,100801.94
2023-01-20T03:19:48.878Z,100808.03
2023-01-20T03:22:16.970Z,100811.75
2023-01-20T03:24:48.031Z,100811.34
2023-01-20T03:27:15.767Z,100821.84
2023-01-20T03:29:43.347Z,100813.28
2023-01-20T03:32:12.772Z,100812.72
2023-01-20T03:34:43.654Z,100813.25
2023-01-20T03:37:14.178Z,100825.72
2023-01-20T03:39:41.996Z,100826.66
2023-01-20T03:42:13.771Z,100839.94
2023-01-20T03:44:55.636Z,100846.00
2023-01-20T03:47:37.195Z,100846.84
2023-01-20T03:50:10.354Z,100845.19
2023-01-20T03:52:47.483Z,100853.63
2023-01-20T03:55:21.607Z,100857.66
2023-01-20T03:57:54.159Z,100862.78
2023-01-20T04:00:25.214Z,100854.91
2023-01-20T04:02:55.615Z,100861.38
2023-01-20T04:05:23.415Z,100864.69
2023-01-20T04:07:55.476Z,100858.75
2023-01-20T04:10:26.399Z,100861.38
2023-01-20T04:12:54.810Z,100865.53
2023-01-20T04:15:23.192Z,100860.44
2023-01-20T04:17:50.962Z,100858.75
2023-01-20T04:20:19.396Z,100866.63
2023-01-20T04:22:51.743Z,100869.53
2023-01-20T04:25:26.475Z,100873.94
2023-01-20T04:27:54.258Z,100864.41
2023-01-20T04:30:21.957Z,100877.69
2023-01-20T04:32:49.618Z,100878.63
2023-01-20T04:35:20.173Z,100879.34
2023-01-20T04:37:47.814Z,100878.38
2023-01-20T04:40:15.730Z,100881.72
2023-01-20T04:42:44.689Z,100879.88
2023-01-20T04:45:16.130Z,100882.25
2023-01-20T04:47:44.642Z,100885.72
2023-01-20T04:50:13.760Z,100894.44
2023-01-20T04:52:41.466Z,100891.81
2023-01-20T04:55:10.348Z,100894.31
2023-01-20T04:57:37.931Z,100900.38
2023-01-20T05:00:09.499Z,100903.72
2023-01-20T05:02:37.132Z,100910.88
2023-01-20T05:05:05.072Z,100906.47
2023-01-20T05:07:32.666Z,100916.88
2023-01-20T05:10:00.263Z,100918.91
2023-01-20T05:12:27.932Z,100910.63
2023-01-20T05:14:55.527Z,100925.31
2023-01-20T05:17:24.626Z,100928.22
2023-01-20T05:19:52.326Z,100937.63
2023-01-20T05:22:19.954Z,100940.25
2023-01-20T05:24:47.484Z,100943.81
2023-01-20T05:27:15.075Z,100943.00
2023-01-20T05:29:42.658Z,100939.41
2023-01-20T05:32:10.243Z,100948.25
2023-01-20T05:34:39.222Z,100954.59
2023-01-20T05:37:06.848Z,100956.13
2023-01-20T05:39:34.492Z,100965.00
2023-01-20T05:42:02.739Z,100975.34
2023-01-20T05:44:30.318Z,100971.78
2023-01-20T05:46:57.949Z,100974.41
2023-01-20T05:49:25.631Z,100990.56
2023-01-20T05:51:54.614Z,100985.81
2023-01-20T05:54:22.531Z,100998.13
2023-01-20T05:56:50.130Z,100997.31
2023-01-20T05:59:17.669Z,100999.22
2023-01-20T06:01:45.344Z,101005.00
2023-01-20T06:04:12.947Z,101005.25
2023-01-20T06:06:40.555Z,101015.19
2023-01-20T06:09:10.953Z,101018.66
2023-01-20T06:11:38.599Z,101031.09
2023-01-20T06:14:06.236Z,101029.94
2023-01-20T06:16:33.883Z,101032.69
2023-01-20T06:19:01.511Z,101041.66
2023-01-20T06:21:29.175Z,101041.78
2023-01-20T06:23:56.919Z,101037.50
2023-01-20T06:26:25.806Z,101042.75
2023-01-20T06:28:53.391Z,101050.06
2023-01-20T06:31:21.030Z,101052.44
2023-01-20T06:33:48.631Z,101052.44
2023-01-20T06:36:17.603Z,101061.00
2023-01-20T06:38:50.322Z,101053.25
2023-01-20T06:41:19.019Z,101069.13
2023-01-20T06:43:50.063Z,101071.75
2023-01-20T06:46:18.342Z,101067.47
2023-01-20T06:48:46.757Z,101077.72
2023-01-20T06:51:16.948Z,101069.97
2023-01-20T06:53:45.376Z,101082.25
2023-01-20T06:56:14.892Z,101083.34
2023-01-20T06:58:43.128Z,101090.16
2023-01-20T07:01:14.715Z,101095.28
2023-01-20T07:03:43.545Z,101105.91
2023-01-20T07:06:16.743Z,101114.47
2023-01-20T07:08:44.939Z,101111.72
2023-01-20T07:11:13.167Z,101115.78
2023-01-20T07:13:40.792Z,101124.88
2023-01-20T07:16:10.985Z,101127.34
2023-01-20T07:18:41.299Z,101136.66
2023-01-20T07:21:11.211Z,101142.59
2023-01-20T07:23:38.768Z,101140.63
2023-01-20T07:26:08.790Z,101143.25
2023-01-20T07:28:37.167Z,101149.34
2023-01-20T07:31:05.715Z,101154.59
2023-01-20T07:33:33.762Z,101159.84
2023-01-20T07:36:03.132Z,101165.69
2023-01-20T07:38:31.482Z,101179.88
2023-01-20T07:40:59.536Z,101188.00
2023-01-20T07:43:27.315Z,101195.63
2023-01-20T07:45:56.347Z,101200.88
2023-01-20T07:48:24.897Z,101207.13
2023-01-20T07:50:57.850Z,101214.50
2023-01-20T07:53:26.797Z,101229.78
2023-01-20T07:55:54.456Z,101227.69
2023-01-20T07:58:22.089Z,101226.16
2023-01-20T08:00:49.742Z,101241.69
2023-01-20T08:03:17.344Z,101240.72
2023-01-20T08:05:45.050Z,101236.31
2023-01-20T08:08:12.756Z,101248.00
2023-01-20T08:10:41.837Z,101252.44
2023-01-20T08:13:09.445Z,101255.78
2023-01-20T08:15:36.974Z,101269.88
2023-01-20T08:18:04.663Z,101265.47
2023-01-20T08:20:32.276Z,101273.34
2023-01-20T08:22:59.890Z,101278.44
2023-01-20T08:25:27.460Z,101288.13
2023-01-20T08:27:56.427Z,101290.75
2023-01-20T08:30:24.046Z,101303.78
2023-01-20T08:32:51.652Z,101304.47
2023-01-20T08:35:19.654Z,101312.94
2023-01-20T08:37:47.346Z,101314.38
2023-01-20T08:40:15.486Z,101323.81
2023-01-20T08:42:43.155Z,101319.16
2023-01-20T08:45:13.121Z,101327.16
2023-01-20T08:47:45.702Z,101331.31
2023-01-20T08:50:15.551Z,101337.16
2023-01-20T08:52:43.508Z,101345.78
2023-01-20T08:55:11.914Z,101352.09
2023-01-20T08:57:39.515Z,101357.09
2023-01-20T09:00:10.893Z,101362.84
2023-01-20T09:02:40.888Z,101363.53
2023-01-20T09:05:09.852Z,101371.28
2023-01-20T09:07:37.415Z,101370.81
2023-01-20T09:10:06.257Z,101383.59
2023-01-20T09:12:34.194Z,101383.94
2023-01-20T09:15:04.105Z,101376.63
2023-01-20T09:17:32.596Z,101384.97
2023-01-20T09:20:01.558Z,101388.75
2023-01-20T09:22:29.128Z,101398.09
2023-01-20T09:24:56.782Z,101398.53
2023-01-20T09:27:25.365Z,101411.44
2023-01-20T09:29:53.440Z,101411.19
2023-01-20T09:32:21.060Z,101411.78
2023-01-20T09:34:48.634Z,101415.69
2023-01-20T09:37:35.226Z,101420.84
2023-01-20T09:40:20.450Z,101431.13
2023-01-20T09:43:22.741Z,101429.34
2023-01-20T09:45:56.129Z,101433.75
2023-01-20T09:48:48.937Z,101445.47
2023-01-20T09:51:42.760Z,101443.00
2023-01-20T09:54:17.661Z,101443.94
2023-01-20T09:56:48.971Z,101461.28
2023-01-20T09:59:21.261Z,101456.00
2023-01-20T10:01:52.174Z,101462.25
2023-01-20T10:04:25.323Z,101462.59
2023-01-20T10:06:56.382Z,101470.63
2023-01-20T10:09:32.716Z,101465.38
2023-01-20T10:12:08.401Z,101466.06
2023-01-20T10:14:41.917Z,101473.25
2023-01-20T10:17:15.453Z,101473.75
2023-01-20T10:19:50.189Z,101474.81
2023-01-20T10:22:23.076Z,101466.69
2023-01-20T10:24:58.873Z,101481.16
2023-01-20T10:27:29.657Z,101477.69
2023-01-20T10:30:04.837Z,101487.25
2023-01-20T10:32:36.556Z,101488.47
2023-01-20T10:35:11.532Z,101490.63
2023-01-20T10:37:39.761Z,101490.75
2023-01-20T10:40:19.211Z,101496.38
2023-01-20T10:42:49.573Z,101500.44
2023-01-20T10:45:22.214Z,101508.19
2023-01-20T10:47:59.653Z,101502.22
2023-01-20T10:50:35.353Z,101498.91
2023-01-20T10:53:14.952Z,101516.94
2023-01-20T10:55:56.522Z,101516.56
2023-01-20T10:58:28.779Z,101516.44
2023-01-20T11:00:58.288Z,101522.16
2023-01-20T11:03:26.890Z,101516.91
2023-01-20T11:05:54.524Z,101519.53
2023-01-20T11:08:24.820Z,101521.91
2023-01-20T11:10:55.928Z,101517.50
2023-01-20T11:13:23.735Z,101520.22
2023-01-20T11:15:56.342Z,101526.78
2023-01-20T11:18:30.442Z,101530.41
2023-01-20T11:21:01.587Z,101529.31
2023-01-20T11:23:37.669Z,101530.63
2023-01-20T11:26:10.908Z,101533.00
2023-01-20T11:28:51.887Z,101535.00
2023-01-20T11:31:19.877Z,101540.59
2023-01-20T11:33:59.569Z,101547.41
2023-01-20T11:36:27.803Z,101549.69
2023-01-20T11:38:56.948Z,101553.97
2023-01-20T11:41:28.003Z,101555.31
2023-01-20T11:43:57.233Z,101563.06
2023-01-20T11:46:30.743Z,101569.00
2023-01-20T11:49:14.791Z,101560.97
2023-01-20T11:51:51.021Z,101569.00
2023-01-20T11:54:21.553Z,101565.16
2023-01-20T11:56:54.863Z,101565.16
2023-01-20T11:59:27.563Z,101571.44
2023-01-20T12:01:58.519Z,101575.50
2023-01-20T12:28:01.312Z,101603.81
2023-01-20T12:30:45.210Z,101602.06
2023-01-20T12:33:25.298Z,101605.19
2023-01-20T12:36:34.480Z,101611.72
2023-01-20T12:39:28.645Z,101615.31
2023-01-20T12:42:31.298Z,101616.06
2023-01-20T12:45:00.505Z,101623.38
2023-01-20T12:47:45.644Z,101623.97
2023-01-20T12:50:24.397Z,101634.50
2023-01-20T12:53:06.200Z,101636.03
2023-01-20T12:55:49.697Z,101641.31
2023-01-20T12:58:26.878Z,101642.47
2023-01-20T13:01:16.114Z,101647.47
2023-01-20T13:04:26.163Z,101651.66
2023-01-20T13:07:15.414Z,101655.59
2023-01-20T13:09:58.862Z,101659.88
2023-01-20T13:12:41.360Z,101670.44
2023-01-20T13:15:20.001Z,101676.56
2023-01-20T13:18:03.347Z,101670.19
2023-01-20T13:20:31.882Z,101675.34
2023-01-20T13:23:04.995Z,101680.63
2023-01-20T13:25:34.780Z,101682.53
2023-01-20T13:28:03.201Z,101682.41
2023-01-20T13:30:42.965Z,101694.06
2023-01-20T13:33:19.392Z,101685.41
2023-01-20T13:35:51.396Z,101705.56
2023-01-20T13:38:23.610Z,101700.28
2023-01-20T13:40:56.332Z,101702.81
2023-01-20T13:43:47.975Z,101708.09
2023-01-20T13:46:47.381Z,101704.72
2023-01-20T13:49:32.026Z,101711.94
2023-01-20T13:51:59.649Z,101714.16
2023-01-20T13:54:45.545Z,101722.09
2023-01-20T13:57:46.325Z,101724.59
2023-01-20T14:00:19.719Z,101726.28
2023-01-20T14:02:49.378Z,101723.75
2023-01-20T14:05:33.746Z,101735.25
2023-01-20T14:08:01.760Z,101745.00
2023-01-20T14:10:30.829Z,101743.81
2023-01-20T14:12:58.452Z,101755.81
2023-01-20T14:15:36.887Z,101765.50
2023-01-20T14:18:05.661Z,101768.97
2023-01-20T14:20:33.514Z,101774.97
2023-01-20T14:23:25.560Z,101773.53
2023-01-20T14:26:11.735Z,101773.31
2023-01-20T14:28:45.716Z,101773.97
2023-01-20T14:31:40.689Z,101790.28
2023-01-20T14:34:25.328Z,101795.91
2023-01-20T14:36:53.348Z,101795.44
2023-01-20T14:39:24.379Z,101806.31
2023-01-20T14:41:54.861Z,101816.28
2023-01-20T14:44:24.182Z,101813.16
2023-01-20T14:46:54.300Z,101829.34
2023-01-20T14:49:23.977Z,101834.97
2023-01-20T14:51:52.805Z,101841.31
2023-01-20T14:54:38.206Z,101845.88
2023-01-20T14:57:26.530Z,101849.47
2023-01-20T15:00:05.716Z,101860.00
2023-01-20T15:02:35.916Z,101860.94
2023-01-20T15:05:13.712Z,101862.63
2023-01-20T15:07:41.981Z,101871.47
2023-01-20T15:10:16.430Z,101871.38
2023-01-20T15:12:55.784Z,101878.22
2023-01-20T15:15:29.004Z,101886.72
2023-01-20T15:18:21.368Z,101886.72
2023-01-20T15:21:03.730Z,101887.41
2023-01-20T15:23:38.121Z,101898.94
2023-01-20T15:26:10.568Z,101904.22
2023-01-20T15:28:43.929Z,101900.84
2023-01-20T15:31:14.350Z,101910.66
2023-01-20T15:33:42.900Z,101916.03
2023-01-20T15:36:25.332Z,101916.16
2023-01-20T15:38:53.192Z,101927.03
2023-01-20T15:41:21.378Z,101922.75
2023-01-20T15:43:52.436Z,101925.63
2023-01-20T15:46:20.515Z,101933.63
2023-01-20T15:48:48.136Z,101940.91
2023-01-20T15:51:17.329Z,101941.28
2023-01-20T15:53:45.913Z,101952.66
2023-01-20T15:56:20.768Z,101952.03
2023-01-20T15:58:50.741Z,101965.22
2023-01-20T16:01:20.573Z,101969.53
2023-01-20T16:03:48.185Z,101969.63
2023-01-20T16:06:17.422Z,101987.22
2023-01-20T16:08:47.117Z,101980.28
2023-01-20T16:11:14.744Z,101989.97
2023-01-20T16:13:42.948Z,101994.63
2023-01-20T16:16:14.480Z,101996.56
2023-01-20T16:18:42.537Z,101996.78
2023-01-20T16:21:11.795Z,102000.34
2023-01-20T16:23:39.574Z,102006.56
2023-01-20T16:26:19.686Z,102009.31
2023-01-20T16:28:47.290Z,102020.19
2023-01-20T16:31:16.756Z,102029.91
2023-01-20T16:33:44.540Z,102029.78
2023-01-20T16:36:13.798Z,102027.97
2023-01-20T16:38:42.024Z,102029.06
2023-01-20T16:41:16.290Z,102036.09
2023-01-20T16:43:44.509Z,102040.75
2023-01-20T16:46:14.579Z,102048.88
2023-01-20T16:48:44.090Z,102040.34
2023-01-20T16:51:14.037Z,102057.22
2023-01-20T16:53:41.771Z,102065.31
2023-01-20T16:56:14.843Z,102059.44
2023-01-20T16:58:42.475Z,102067.69
2023-01-20T17:01:12.313Z,102075.66
2023-01-20T17:03:40.815Z,102079.38
2023-01-20T17:06:17.458Z,102085.69
2023-01-20T17:08:45.976Z,102087.81
2023-01-20T17:11:17.915Z,102097.50
2023-01-20T17:13:45.522Z,102102.84
2023-01-20T17:16:13.442Z,102112.34
2023-01-20T17:18:44.599Z,102117.41
2023-01-20T17:21:14.977Z,102114.63
2023-01-20T17:23:43.328Z,102124.94
2023-01-20T17:26:11.041Z,102128.09
2023-01-20T17:28:38.612Z,102131.47
2023-01-20T17:31:07.897Z,102134.19
2023-01-20T17:33:35.509Z,102141.38
2023-01-20T17:36:04.577Z,102141.59
2023-01-20T17:38:35.482Z,102141.88
2023-01-20T17:41:03.859Z,102141.72
2023-01-20T17:43:35.697Z,102155.38
2023-01-20T17:46:13.252Z,102149.09
2023-01-20T17:48:41.065Z,102158.34
2023-01-20T17:51:12.945Z,102158.25
2023-01-20T17:53:42.108Z,102156.03
2023-01-20T17:56:13.463Z,102165.38
2023-01-20T17:58:42.732Z,102168.53
2023-01-20T18:01:12.650Z,102166.31
2023-01-20T18:03:42.963Z,102178.06
2023-01-20T18:06:12.578Z,102181.97
2023-01-20T18:08:40.644Z,102183.09
2023-01-20T18:11:11.803Z,102192.22
2023-01-20T18:13:39.789Z,102194.22
2023-01-20T18:16:08.897Z,102188.31
2023-01-20T18:18:36.566Z,102198.28
2023-01-20T18:21:11.240Z,102200.16
2023-01-20T18:23:39.537Z,102204.66
2023-01-20T18:26:09.734Z,102203.94
2023-01-20T18:28:38.271Z,102215.16
2023-01-20T18:31:08.945Z,102213.50
2023-01-20T18:33:38.505Z,102224.84
2023-01-20T18:36:07.935Z,102225.59
2023-01-20T18:38:35.674Z,102233.34
2023-01-20T18:41:04.411Z,102235.97
2023-01-20T18:43:33.421Z,102237.78
2023-01-20T18:46:01.139Z,102240.50
2023-01-20T18:48:28.786Z,102248.50
2023-01-20T18:50:59.848Z,102252.06
2023-01-20T18:53:27.940Z,102246.06
2023-01-20T18:56:01.035Z,102250.56
2023-01-20T18:58:29.374Z,102246.16
2023-01-20T19:01:04.860Z,102260.97
2023-01-20T19:03:32.660Z,102261.91
2023-01-20T19:06:07.862Z,102267.91
2023-01-20T19:08:35.684Z,102272.41
2023-01-20T19:11:05.268Z,102273.25
2023-01-20T19:13:33.350Z,102276.81
2023-01-20T19:16:01.121Z,102279.56
2023-01-20T19:18:30.309Z,102280.59
2023-01-20T19:21:05.639Z,102293.81
2023-01-20T19:23:33.215Z,102300.19
2023-01-20T19:26:01.579Z,102299.63
2023-01-20T19:28:29.202Z,102294.78
2023-01-20T19:30:57.191Z,102306.63
2023-01-20T19:33:24.905Z,102303.59
2023-01-20T19:35:53.885Z,102311.09
2023-01-20T19:38:21.498Z,102312.50
2023-01-20T19:40:49.116Z,102320.75
2023-01-20T19:43:16.795Z,102319.34
2023-01-20T19:45:46.217Z,102327.47
2023-01-20T19:48:13.984Z,102334.69
2023-01-20T19:50:41.828Z,102340.09
2023-01-20T19:53:10.790Z,102339.47
2023-01-20T19:55:38.362Z,102355.47
2023-01-20T19:58:06.295Z,102353.13
2023-01-20T20:00:33.920Z,102348.31
2023-01-20T20:03:03.025Z,102366.94
2023-01-20T20:05:31.778Z,102373.28
2023-01-20T20:08:01.076Z,102373.41
2023-01-20T20:10:30.184Z,102386.59
2023-01-20T20:12:59.100Z,102386.59
2023-01-20T20:15:26.750Z,102391.81
2023-01-20T20:17:55.251Z,102399.63
2023-01-20T20:20:22.830Z,102391.75
2023-01-20T20:22:50.465Z,102389.13
2023-01-20T20:25:18.197Z,102396.03
2023-01-20T20:27:47.316Z,102403.91
2023-01-20T20:30:15.200Z,102402.25
2023-01-20T20:32:43.039Z,102409.34
2023-01-20T20:35:10.751Z,102407.66
2023-01-20T20:37:39.054Z,102404.19
2023-01-20T20:40:08.097Z,102401.63
2023-01-20T20:42:35.875Z,102411.28
2023-01-20T20:45:05.167Z,102420.00
2023-01-20T20:47:33.145Z,102427.00
2023-01-20T20:50:00.810Z,102428.81
2023-01-20T20:52:28.469Z,102422.63
2023-01-20T20:54:56.127Z,102430.59
2023-01-20T20:57:23.743Z,102434.97
2023-01-20T20:59:58.946Z,102443.59
2023-01-20T21:02:28.552Z,102442.84
2023-01-20T21:04:56.280Z,102438.63
2023-01-20T21:07:23.895Z,102448.50
2023-01-20T21:09:52.057Z,102455.88
2023-01-20T21:12:19.746Z,102451.91
2023-01-20T21:14:47.461Z,102464.41
2023-01-20T21:17:15.087Z,102469.13
2023-01-20T21:19:44.162Z,102468.56
2023-01-20T21:22:11.775Z,102473.28
2023-01-20T21:24:39.363Z,102479.53
2023-01-20T21:27:06.935Z,102471.84
2023-01-20T21:29:34.494Z,102480.69
2023-01-20T21:32:02.114Z,102484.25
2023-01-20T21:34:29.703Z,102488.72
2023-01-20T21:36:59.588Z,102487.03
2023-01-20T21:39:27.205Z,102482.81
2023-01-20T21:41:54.775Z,102495.22
2023-01-20T21:44:32.855Z,102497.13
2023-01-20T21:47:02.235Z,102501.69
2023-01-20T21:50:02.033Z,102499.22
2023-01-20T21:52:43.065Z,102511.63
2023-01-20T21:55:13.243Z,102507.41
2023-01-20T21:57:40.838Z,102510.88
2023-01-20T22:00:10.311Z,102524.72
2023-01-20T22:02:38.125Z,102529.91
2023-01-20T22:05:06.462Z,102536.59
2023-01-20T22:07:35.623Z,102532.03
2023-01-20T22:10:03.795Z,102546.69
2023-01-20T22:12:34.526Z,102547.44
2023-01-20T22:15:02.477Z,102547.28
2023-01-20T22:17:30.901Z,102549.56
2023-01-20T22:19:58.577Z,102551.94
2023-01-20T22:22:26.210Z,102552.63
2023-01-20T22:24:55.195Z,102552.31
2023-01-20T22:27:22.793Z,102554.75
2023-01-20T22:29:50.390Z,102561.88
2023-01-20T22:32:18.049Z,102566.94
2023-01-20T22:34:45.605Z,102566.94
2023-01-20T22:37:13.255Z,102573.28
2023-01-20T22:39:40.854Z,102575.03
2023-01-20T22:42:09.851Z,102577.59
2023-01-20T22:44:37.444Z,102581.66
2023-01-20T22:47:09.678Z,102591.97
2023-01-20T22:49:37.301Z,102597.06
2023-01-20T22:52:05.086Z,102595.28
2023-01-20T22:54:32.754Z,102603.06
2023-01-20T22:57:00.396Z,102600.38
2023-01-20T22:59:29.556Z,102603.75
2023-01-20T23:01:57.187Z,102603.75
2023-01-20T23:04:24.856Z,102608.09
2023-01-20T23:06:52.575Z,102607.22
2023-01-20T23:09:20.214Z,102614.06
2023-01-20T23:11:49.346Z,102607.06
2023-01-20T23:14:17.211Z,102612.31
2023-01-20T23:16:46.163Z,102620.06
2023-01-20T23:19:13.858Z,102615.00
2023-01-20T23:21:41.565Z,102609.75
2023-01-20T23:24:09.556Z,102623.03
2023-01-20T23:26:37.215Z,102624.81
2023-01-20T23:29:05.280Z,102615.09
2023-01-20T23:31:35.121Z,102627.25
2023-01-20T23:34:04.352Z,102625.72
2023-01-20T23:36:32.116Z,102633.06
2023-01-20T23:38:59.784Z,102634.06
2023-01-20T23:41:27.501Z,102638.94
2023-01-20T23:43:55.191Z,102657.88
2023-01-20T23:46:22.777Z,102652.75
2023-01-20T23:48:50.414Z,102657.22
2023-01-20T23:51:19.534Z,102654.59
2023-01-20T23:53:47.253Z,102665.13
2023-01-20T23:56:17.368Z,102660.06
2023-01-20T23:58:45.805Z,102664.16
